Rosemont, Nebraska
Current Conditions -  °F | °C
As of 12:51 AM on Thursday 23 Oct 2014 (Local Time) from KHSI Reporting Station
Moderate Fog Moderate Fog  
Wind Chill: 54°   Ceiling: 500
Heat Index: 54°   Visibility: 0.25mi
Dew Point: 52°   Wind: 3mph
Humidity: 93%   Direction: 300°WNW
Pressure: 30.05"   Gusts: NA
Location:  40.2644°N, 98.3887°W
Report Text: KHSI 230551Z AUTO 30003KT 1/4SM FG BKN005 OVC014 12/11 A3005 RMK AO2 SLP166 T01220111 10167 20122 402330122 50003
Loading
Personal Weather Stations






























Interactive Weather Map
Tropical Storm Tracking
New forecast layout! Learn more

10-Day Weather Forecast

Advertisements
Track Severe Weather on mobile